createdAt,value
2018-01-15T00:02:23.727Z,4.20
2018-01-15T00:04:51.300Z,4.20
2018-01-15T00:07:18.830Z,4.00
2018-01-15T00:09:46.353Z,3.90
2018-01-15T00:12:13.915Z,4.00
2018-01-15T00:14:41.487Z,4.00
2018-01-15T00:17:09.001Z,4.10
2018-01-15T00:19:36.515Z,4.10
2018-01-15T00:22:04.059Z,4.10
2018-01-15T00:24:31.571Z,4.10
2018-01-15T00:26:59.123Z,4.10
2018-01-15T00:29:26.634Z,4.10
2018-01-15T00:31:54.179Z,4.20
2018-01-15T00:34:21.711Z,4.10
2018-01-15T00:36:49.231Z,4.10
2018-01-15T00:39:16.849Z,4.20
2018-01-15T00:41:44.434Z,4.20
2018-01-15T00:44:11.972Z,4.30
2018-01-15T00:46:39.530Z,4.30
2018-01-15T00:49:07.051Z,4.40
2018-01-15T00:51:34.638Z,4.50
2018-01-15T00:54:02.159Z,4.40
2018-01-15T00:56:29.704Z,4.40
2018-01-15T00:58:57.210Z,4.40
2018-01-15T01:01:24.754Z,4.30
2018-01-15T01:03:52.268Z,4.30
2018-01-15T01:06:19.804Z,4.30
2018-01-15T01:08:47.342Z,4.20
2018-01-15T01:11:14.892Z,4.10
2018-01-15T01:13:42.448Z,4.10
2018-01-15T01:16:09.963Z,4.00
2018-01-15T01:18:37.462Z,4.10
2018-01-15T01:21:05.771Z,4.10
2018-01-15T01:23:33.277Z,4.10
2018-01-15T01:26:00.816Z,4.10
2018-01-15T01:28:28.381Z,4.10
2018-01-15T01:30:55.891Z,4.00
2018-01-15T01:33:23.441Z,4.00
2018-01-15T01:35:51.724Z,4.00
2018-01-15T01:38:19.279Z,4.00
2018-01-15T01:40:46.828Z,3.90
2018-01-15T01:43:14.336Z,3.90
2018-01-15T01:45:41.871Z,3.90
2018-01-15T01:48:09.382Z,3.90
2018-01-15T01:50:36.943Z,3.90
2018-01-15T01:53:04.455Z,3.90
2018-01-15T01:55:32.008Z,3.80
2018-01-15T01:57:59.523Z,3.90
2018-01-15T02:00:27.063Z,4.00
2018-01-15T02:02:54.575Z,4.00
2018-01-15T02:05:22.125Z,4.00
2018-01-15T02:07:49.677Z,4.00
2018-01-15T02:10:17.970Z,3.90
2018-01-15T02:12:46.252Z,3.90
2018-01-15T02:15:13.795Z,3.90
2018-01-15T02:17:41.352Z,4.00
2018-01-15T02:20:09.657Z,4.00
2018-01-15T02:22:37.176Z,4.00
2018-01-15T02:25:04.730Z,4.00
2018-01-15T02:27:32.255Z,4.00
2018-01-15T02:29:59.800Z,4.00
2018-01-15T02:32:27.351Z,4.00
2018-01-15T02:34:54.865Z,3.90
2018-01-15T02:37:22.391Z,3.90
2018-01-15T02:39:50.012Z,3.90
2018-01-15T02:42:18.328Z,3.90
2018-01-15T02:44:45.892Z,3.80
2018-01-15T02:47:13.414Z,3.90
2018-01-15T02:49:40.951Z,4.00
2018-01-15T02:52:08.463Z,4.00
2018-01-15T02:54:36.020Z,3.90
2018-01-15T02:57:03.548Z,3.90
2018-01-15T02:59:31.103Z,3.90
2018-01-15T03:01:58.621Z,3.90
2018-01-15T03:04:26.166Z,3.90
2018-01-15T03:06:53.719Z,3.90
2018-01-15T03:09:21.249Z,3.90
2018-01-15T03:11:48.795Z,3.80
2018-01-15T03:14:17.104Z,3.80
2018-01-15T03:16:44.953Z,3.70
2018-01-15T03:19:12.516Z,3.80
2018-01-15T03:21:40.070Z,3.80
2018-01-15T03:24:07.639Z,3.80
2018-01-15T03:26:35.159Z,3.60
2018-01-15T03:31:44.576Z,3.50
2018-01-15T03:34:12.117Z,3.50
2018-01-15T03:36:39.632Z,3.70
2018-01-15T03:39:07.183Z,3.80
2018-01-15T03:41:34.741Z,3.80
2018-01-15T03:44:02.296Z,3.70
2018-01-15T03:46:29.859Z,3.70
2018-01-15T03:48:57.393Z,3.70
2018-01-15T03:51:24.944Z,3.60
2018-01-15T03:53:52.493Z,3.70
2018-01-15T03:56:20.013Z,3.70
2018-01-15T03:58:47.526Z,3.80
2018-01-15T04:01:15.060Z,3.70
2018-01-15T04:03:42.579Z,3.60
2018-01-15T04:06:10.134Z,3.60
2018-01-15T04:08:37.653Z,3.60
2018-01-15T04:11:05.196Z,3.60
2018-01-15T04:13:32.724Z,3.70
2018-01-15T04:16:00.290Z,3.50
2018-01-15T04:18:27.816Z,3.60
2018-01-15T04:20:55.340Z,3.60
2018-01-15T04:23:22.889Z,3.60
2018-01-15T04:25:50.408Z,3.70
2018-01-15T04:28:17.966Z,3.80
2018-01-15T04:30:45.484Z,3.70
2018-01-15T04:33:13.025Z,3.70
2018-01-15T04:35:40.539Z,3.70
2018-01-15T04:38:08.089Z,3.70
2018-01-15T04:40:35.635Z,3.70
2018-01-15T04:43:03.138Z,3.60
2018-01-15T04:45:31.443Z,3.70
2018-01-15T04:47:58.960Z,3.70
2018-01-15T04:50:26.528Z,3.70
2018-01-15T04:52:54.058Z,3.80
2018-01-15T04:55:21.579Z,3.80
2018-01-15T04:57:49.137Z,3.80
2018-01-15T05:00:16.709Z,3.90
2018-01-15T05:02:44.251Z,3.90
2018-01-15T05:05:11.879Z,4.00
2018-01-15T05:07:39.398Z,4.00
2018-01-15T05:10:06.941Z,3.90
2018-01-15T05:12:34.483Z,4.00
2018-01-15T05:15:02.799Z,4.00
2018-01-15T05:17:30.567Z,4.00
2018-01-15T05:19:58.088Z,4.10
2018-01-15T05:22:26.391Z,4.00
2018-01-15T05:24:53.922Z,4.00
2018-01-15T05:27:22.287Z,4.00
2018-01-15T05:29:50.603Z,4.10
2018-01-15T05:32:18.146Z,4.10
2018-01-15T05:34:45.691Z,4.00
2018-01-15T05:37:13.248Z,4.00
2018-01-15T05:39:40.762Z,4.00
2018-01-15T05:42:08.322Z,3.90
2018-01-15T05:44:35.823Z,4.00
2018-01-15T05:47:03.343Z,4.10
2018-01-15T05:49:30.896Z,4.20
2018-01-15T05:51:58.402Z,4.10
2018-01-15T05:54:26.731Z,4.20
2018-01-15T05:56:54.250Z,4.20
2018-01-15T05:59:21.836Z,4.20
2018-01-15T06:01:49.350Z,4.10
2018-01-15T06:04:16.862Z,4.10
2018-01-15T06:06:44.412Z,4.10
2018-01-15T06:09:11.927Z,4.10
2018-01-15T06:11:39.590Z,4.20
2018-01-15T06:14:07.868Z,4.30
2018-01-15T06:16:35.471Z,4.30
2018-01-15T06:19:03.024Z,4.20
2018-01-15T06:21:30.532Z,4.40
2018-01-15T06:23:58.067Z,4.30
2018-01-15T06:26:25.603Z,4.30
2018-01-15T06:28:53.157Z,4.20
2018-01-15T06:31:20.679Z,4.20
2018-01-15T06:33:48.228Z,4.30
2018-01-15T06:36:15.749Z,4.20
2018-01-15T06:38:43.294Z,4.30
2018-01-15T06:41:10.844Z,4.30
2018-01-15T06:43:38.399Z,4.30
2018-01-15T06:46:05.994Z,4.30
2018-01-15T06:48:33.516Z,4.40
2018-01-15T06:51:01.061Z,4.40
2018-01-15T06:53:29.343Z,4.50
2018-01-15T06:55:56.895Z,4.50
2018-01-15T06:58:25.224Z,4.50
2018-01-15T07:00:52.792Z,4.50
2018-01-15T07:03:20.307Z,4.60
2018-01-15T07:05:48.631Z,4.50
2018-01-15T07:08:16.202Z,4.50
2018-01-15T07:10:43.740Z,4.40
2018-01-15T07:13:11.292Z,4.40
2018-01-15T07:15:38.866Z,4.50
2018-01-15T07:18:06.408Z,4.50
2018-01-15T07:20:33.932Z,4.50
2018-01-15T07:23:02.227Z,4.70
2018-01-15T07:25:29.817Z,4.60
2018-01-15T07:27:58.347Z,4.50
2018-01-15T07:30:26.307Z,4.50
2018-01-15T07:32:53.827Z,4.60
2018-01-15T07:35:21.388Z,4.60
2018-01-15T07:37:48.950Z,4.70
2018-01-15T07:40:16.473Z,4.60
2018-01-15T07:42:44.101Z,4.70
2018-01-15T07:45:11.686Z,4.70
2018-01-15T07:47:39.973Z,5.00
2018-01-15T07:50:07.519Z,5.00
2018-01-15T07:52:35.218Z,5.00
2018-01-15T07:55:02.887Z,5.00
2018-01-15T07:57:30.452Z,5.00
2018-01-15T07:59:58.024Z,5.00
2018-01-15T08:02:25.538Z,4.90
2018-01-15T08:04:53.192Z,4.90
2018-01-15T08:07:20.727Z,5.00
2018-01-15T08:09:48.298Z,5.10
2018-01-15T08:12:16.719Z,5.00
2018-01-15T08:14:44.328Z,5.00
2018-01-15T08:17:11.888Z,5.00
2018-01-15T08:19:39.514Z,5.10
2018-01-15T08:22:07.038Z,5.10
2018-01-15T08:24:34.599Z,5.10
2018-01-15T08:27:02.143Z,5.20
2018-01-15T08:29:29.716Z,5.30
2018-01-15T08:31:57.284Z,5.40
2018-01-15T08:34:24.861Z,5.30
2018-01-15T08:36:52.389Z,5.30
2018-01-15T08:39:19.935Z,5.30
2018-01-15T08:41:48.280Z,5.40
2018-01-15T08:44:16.004Z,5.40
2018-01-15T08:46:43.619Z,5.30
2018-01-15T08:49:11.148Z,5.30
2018-01-15T08:51:39.094Z,5.30
2018-01-15T08:54:06.833Z,5.50
2018-01-15T08:56:35.172Z,5.60
2018-01-15T08:59:02.715Z,5.50
2018-01-15T09:01:30.281Z,5.60
2018-01-15T09:03:57.833Z,5.60
2018-01-15T09:06:25.402Z,5.70
2018-01-15T09:08:52.959Z,5.70
2018-01-15T09:11:20.519Z,5.70
2018-01-15T09:13:48.232Z,5.60
2018-01-15T09:16:15.761Z,5.70
2018-01-15T09:18:43.550Z,5.60
2018-01-15T09:21:11.870Z,5.80
2018-01-15T09:23:39.419Z,5.70
2018-01-15T09:26:07.002Z,5.80
2018-01-15T09:28:34.549Z,5.70
2018-01-15T09:31:02.083Z,5.80
2018-01-15T09:33:29.682Z,5.80
2018-01-15T09:35:57.311Z,5.80
2018-01-15T09:38:24.874Z,5.80
2018-01-15T09:40:52.410Z,6.00
2018-01-15T09:43:20.042Z,6.00
2018-01-15T09:45:47.583Z,6.00
2018-01-15T09:48:15.231Z,6.00
2018-01-15T09:50:42.772Z,6.00
2018-01-15T09:53:11.089Z,6.10
2018-01-15T09:55:38.692Z,6.10
2018-01-15T09:58:06.265Z,6.10
2018-01-15T10:00:33.798Z,6.20
2018-01-15T10:03:01.390Z,6.40
2018-01-15T10:05:28.956Z,6.30
2018-01-15T10:07:56.463Z,6.30
2018-01-15T10:10:24.012Z,6.40
2018-01-15T10:12:51.553Z,6.50
2018-01-15T10:15:19.320Z,6.50
2018-01-15T10:17:46.884Z,6.70
2018-01-15T10:20:15.170Z,6.80
2018-01-15T10:22:43.294Z,6.70
2018-01-15T10:25:10.945Z,6.90
2018-01-15T10:27:38.499Z,7.00
2018-01-15T10:30:06.792Z,7.00
2018-01-15T10:32:35.036Z,7.00
2018-01-15T10:35:02.579Z,7.10
2018-01-15T10:37:30.193Z,7.10
2018-01-15T10:39:57.799Z,7.10
2018-01-15T10:42:25.337Z,7.20
2018-01-15T10:44:53.192Z,7.30
2018-01-15T10:47:20.769Z,7.30
2018-01-15T10:49:48.307Z,7.50
2018-01-15T10:52:15.864Z,7.50
2018-01-15T10:54:43.496Z,7.50
2018-01-15T10:57:11.052Z,7.60
2018-01-15T10:59:38.597Z,7.60
2018-01-15T11:02:06.156Z,7.70
2018-01-15T11:04:33.687Z,7.70
2018-01-15T11:07:01.198Z,7.80
2018-01-15T11:09:28.802Z,7.90
2018-01-15T11:11:56.338Z,8.00
2018-01-15T11:14:24.106Z,8.00
2018-01-15T11:16:51.671Z,8.10
2018-01-15T11:19:19.228Z,8.20
2018-01-15T11:21:46.806Z,8.20
2018-01-15T11:24:14.412Z,8.20
2018-01-15T11:26:41.998Z,8.10
2018-01-15T11:29:09.527Z,8.20
2018-01-15T11:31:37.098Z,8.30
2018-01-15T11:34:04.642Z,8.40
2018-01-15T11:36:32.217Z,8.50
2018-01-15T11:39:00.527Z,8.50
2018-01-15T11:41:28.152Z,8.50
2018-01-15T11:43:55.676Z,8.50
2018-01-15T11:46:23.225Z,8.40
2018-01-15T11:48:50.803Z,8.50
2018-01-15T11:51:18.327Z,8.50
2018-01-15T11:53:46.678Z,8.50
2018-01-15T11:56:15.156Z,8.50
2018-01-15T11:58:42.756Z,8.40
2018-01-15T12:01:10.332Z,8.30
2018-01-15T12:03:37.890Z,8.40
2018-01-15T12:06:05.448Z,8.50
2018-01-15T12:08:32.974Z,8.50
2018-01-15T12:11:00.563Z,8.50
2018-01-15T12:13:28.151Z,8.50
2018-01-15T12:15:55.726Z,8.50
2018-01-15T12:18:23.372Z,8.50
2018-01-15T12:20:50.997Z,8.50
2018-01-15T12:23:18.557Z,8.50
2018-01-15T12:25:46.271Z,8.60
2018-01-15T12:28:13.809Z,8.60
2018-01-15T12:30:41.352Z,8.60
2018-01-15T12:33:08.929Z,8.60
2018-01-15T12:35:36.519Z,8.70
2018-01-15T12:38:04.182Z,8.70
2018-01-15T12:40:32.472Z,8.70
2018-01-15T12:43:00.030Z,8.70
2018-01-15T12:45:28.379Z,8.70
2018-01-15T12:47:55.942Z,8.70
2018-01-15T12:50:23.499Z,8.70
2018-01-15T12:52:51.045Z,8.70
2018-01-15T12:55:18.652Z,8.70
2018-01-15T12:57:46.178Z,8.70
2018-01-15T13:00:13.837Z,8.70
2018-01-15T13:02:41.686Z,8.70
2018-01-15T13:05:10.250Z,8.70
2018-01-15T13:07:49.477Z,8.70
2018-01-15T13:10:17.042Z,8.50
2018-01-15T13:12:44.615Z,8.60
2018-01-15T13:15:12.240Z,8.60
2018-01-15T13:17:39.795Z,8.60
2018-01-15T13:20:08.157Z,8.80
2018-01-15T13:22:36.443Z,8.80
2018-01-15T13:25:04.001Z,8.80
2018-01-15T13:27:32.286Z,8.80
2018-01-15T13:29:59.816Z,8.80
2018-01-15T13:32:27.380Z,8.80
2018-01-15T13:34:54.904Z,8.80
2018-01-15T13:37:22.467Z,8.80
2018-01-15T13:39:49.988Z,8.80
2018-01-15T13:42:18.339Z,9.00
2018-01-15T13:44:45.861Z,8.90
2018-01-15T13:47:13.505Z,8.90
2018-01-15T13:49:41.070Z,9.00
2018-01-15T13:52:08.620Z,9.00
2018-01-15T13:54:36.171Z,9.00
2018-01-15T13:57:03.695Z,9.00
2018-01-15T13:59:31.560Z,9.00
2018-01-15T14:01:59.140Z,9.00
2018-01-15T14:04:26.687Z,9.00
2018-01-15T14:06:55.080Z,9.00
2018-01-15T14:09:23.407Z,9.00
2018-01-15T14:11:51.007Z,9.00
2018-01-15T14:14:18.565Z,9.10
2018-01-15T14:16:46.099Z,9.20
2018-01-15T14:19:13.673Z,9.20
2018-01-15T14:21:42.051Z,9.20
2018-01-15T14:24:09.613Z,9.20
2018-01-15T14:26:37.139Z,9.20
2018-01-15T14:29:04.683Z,9.20
2018-01-15T14:31:32.229Z,9.20
2018-01-15T14:33:59.815Z,9.20
2018-01-15T14:36:27.568Z,9.20
2018-01-15T14:38:55.079Z,9.20
2018-01-15T14:41:23.469Z,9.10
2018-01-15T14:43:51.799Z,9.20
2018-01-15T14:46:19.325Z,9.10
2018-01-15T14:48:46.872Z,9.10
2018-01-15T14:51:15.640Z,9.20
2018-01-15T14:53:43.175Z,9.20
2018-01-15T14:56:10.933Z,9.10
2018-01-15T14:58:38.483Z,9.10
2018-01-15T15:01:06.070Z,9.10
2018-01-15T15:03:33.617Z,9.10
2018-01-15T15:06:01.352Z,9.10
2018-01-15T15:08:28.904Z,9.10
2018-01-15T15:10:56.494Z,9.00
2018-01-15T15:13:25.160Z,9.00
2018-01-15T15:15:52.753Z,9.00
2018-01-15T15:18:20.297Z,9.00
2018-01-15T15:20:47.812Z,9.00
2018-01-15T15:23:15.369Z,9.00
2018-01-15T15:25:42.963Z,9.10
2018-01-15T15:28:10.887Z,9.10
2018-01-15T15:30:38.474Z,9.10
2018-01-15T15:33:06.048Z,9.10
2018-01-15T15:35:33.565Z,9.10
2018-01-15T15:38:01.109Z,9.00
2018-01-15T15:40:28.624Z,9.00
2018-01-15T15:42:56.214Z,8.90
2018-01-15T15:45:23.745Z,8.90
2018-01-15T15:47:51.589Z,8.90
2018-01-15T15:50:19.241Z,8.90
2018-01-15T15:52:46.790Z,8.80
2018-01-15T15:55:14.343Z,8.70
2018-01-15T15:57:41.917Z,8.70
2018-01-15T16:00:09.475Z,8.70
2018-01-15T16:02:37.763Z,8.70
2018-01-15T16:05:05.333Z,8.70
2018-01-15T16:07:33.032Z,8.70
2018-01-15T16:10:00.594Z,8.60
2018-01-15T16:12:28.106Z,8.60
2018-01-15T16:14:55.632Z,8.60
2018-01-15T16:17:23.204Z,8.60
2018-01-15T16:19:50.789Z,8.60
2018-01-15T16:22:30.165Z,8.60
2018-01-15T16:24:57.681Z,8.60
2018-01-15T16:27:25.246Z,8.40
2018-01-15T16:29:52.778Z,8.40
2018-01-15T16:32:20.367Z,8.50
2018-01-15T16:34:48.682Z,8.50
2018-01-15T16:37:16.245Z,8.50
2018-01-15T16:39:43.770Z,8.60
2018-01-15T16:42:11.322Z,8.60
2018-01-15T16:44:39.629Z,8.70
2018-01-15T16:47:07.188Z,8.60
2018-01-15T16:49:35.130Z,8.60
2018-01-15T16:52:02.663Z,8.70
2018-01-15T16:54:31.008Z,8.80
2018-01-15T16:56:58.553Z,8.70
2018-01-15T16:59:26.076Z,8.80
2018-01-15T17:01:53.635Z,8.80
2018-01-15T17:04:21.174Z,8.80
2018-01-15T17:06:48.855Z,8.80
2018-01-15T17:09:16.432Z,8.80
2018-01-15T17:11:43.989Z,8.90
2018-01-15T17:14:11.523Z,8.90
2018-01-15T17:16:39.201Z,8.90
2018-01-15T17:19:06.757Z,8.90
2018-01-15T17:21:34.328Z,8.80
2018-01-15T17:24:01.903Z,8.80
2018-01-15T17:26:29.439Z,8.80
2018-01-15T17:28:57.120Z,8.80
2018-01-15T17:31:24.706Z,8.80
2018-01-15T17:33:52.289Z,8.80
2018-01-15T17:36:19.862Z,8.80
2018-01-15T17:38:47.383Z,8.80
2018-01-15T17:41:14.940Z,8.90
2018-01-15T17:43:42.452Z,8.90
2018-01-15T17:46:10.102Z,8.90
2018-01-15T17:48:37.705Z,8.90
2018-01-15T17:51:05.267Z,9.00
2018-01-15T17:53:32.794Z,9.00
2018-01-15T17:56:00.363Z,9.00
2018-01-15T17:58:27.926Z,9.00
2018-01-15T18:00:55.469Z,9.00
2018-01-15T18:03:23.034Z,9.00
2018-01-15T18:05:50.546Z,8.90
2018-01-15T18:08:18.109Z,8.90
2018-01-15T18:10:45.912Z,8.90
2018-01-15T18:13:14.247Z,8.90
2018-01-15T18:15:41.811Z,8.90
2018-01-15T18:18:09.339Z,8.90
2018-01-15T18:20:36.910Z,8.90
2018-01-15T18:23:04.424Z,8.90
2018-01-15T18:25:32.016Z,9.00
2018-01-15T18:27:59.570Z,9.00
2018-01-15T18:30:27.172Z,9.00
2018-01-15T18:32:54.681Z,9.10
2018-01-15T18:35:22.245Z,9.10
2018-01-15T18:37:49.759Z,9.10
2018-01-15T18:40:17.304Z,9.10
2018-01-15T18:42:44.827Z,9.10
2018-01-15T18:45:12.395Z,9.10
2018-01-15T18:47:39.941Z,9.10
2018-01-15T18:50:07.475Z,9.10
2018-01-15T18:52:35.031Z,9.00
2018-01-15T18:55:02.552Z,8.90
2018-01-15T18:57:30.118Z,8.90
2018-01-15T18:59:57.679Z,8.90
2018-01-15T19:02:25.238Z,8.90
2018-01-15T19:04:52.783Z,8.90
2018-01-15T19:07:20.365Z,8.90
2018-01-15T19:09:47.927Z,9.00
2018-01-15T19:12:15.457Z,9.00
2018-01-15T19:14:43.070Z,9.00
2018-01-15T19:17:10.619Z,8.90
2018-01-15T19:19:38.188Z,8.90
2018-01-15T19:22:05.781Z,8.90
2018-01-15T19:24:33.344Z,9.00
2018-01-15T19:27:00.982Z,9.00
2018-01-15T19:29:28.553Z,9.10
2018-01-15T19:31:56.860Z,9.20
2018-01-15T19:34:28.100Z,9.10
2018-01-15T19:36:57.474Z,9.20
2018-01-15T19:39:25.027Z,9.20
2018-01-15T19:41:55.260Z,9.20
2018-01-15T19:44:28.398Z,9.30
2018-01-15T19:47:01.696Z,9.30
2018-01-15T19:49:34.903Z,9.30
2018-01-15T19:52:08.267Z,9.30
2018-01-15T19:54:41.541Z,9.30
2018-01-15T19:57:14.800Z,9.30
2018-01-15T19:59:47.888Z,9.20
2018-01-15T20:02:21.215Z,9.30
2018-01-15T20:04:54.341Z,9.30
2018-01-15T20:07:27.567Z,9.20
2018-01-15T20:10:00.782Z,9.20
2018-01-15T20:12:28.351Z,9.10
2018-01-15T20:14:55.879Z,9.10
2018-01-15T20:17:23.477Z,9.10
2018-01-15T20:19:51.066Z,9.20
2018-01-15T20:22:18.573Z,9.10
2018-01-15T20:24:46.905Z,9.20
2018-01-15T20:27:14.467Z,9.20
2018-01-15T20:29:42.056Z,9.20
2018-01-15T20:32:09.595Z,9.30
2018-01-15T20:34:37.115Z,9.30
2018-01-15T20:37:04.682Z,9.30
2018-01-15T20:39:32.195Z,9.30
2018-01-15T20:41:59.771Z,9.30
2018-01-15T20:44:28.172Z,9.30
2018-01-15T20:46:55.731Z,9.30
2018-01-15T20:49:23.333Z,9.20
2018-01-15T20:51:50.910Z,9.30
2018-01-15T20:54:18.482Z,9.20
2018-01-15T20:56:46.136Z,9.10
2018-01-15T20:59:13.736Z,9.20
2018-01-15T21:01:41.299Z,9.10
2018-01-15T21:04:08.866Z,9.10
2018-01-15T21:06:36.420Z,9.10
2018-01-15T21:09:04.008Z,9.00
2018-01-15T21:11:31.507Z,9.00
2018-01-15T21:13:59.111Z,9.00
2018-01-15T21:16:26.665Z,9.00
2018-01-15T21:18:54.199Z,9.00
2018-01-15T21:21:21.753Z,8.80
2018-01-15T21:23:49.467Z,8.90
2018-01-15T21:26:17.036Z,8.90
2018-01-15T21:28:44.632Z,8.90
2018-01-15T21:31:12.196Z,8.90
2018-01-15T21:33:39.773Z,9.00
2018-01-15T21:36:07.336Z,8.90
2018-01-15T21:38:34.882Z,8.90
2018-01-15T21:41:02.438Z,8.90
2018-01-15T21:43:30.718Z,9.00
2018-01-15T21:45:58.236Z,8.90
2018-01-15T21:48:25.775Z,8.90
2018-01-15T21:50:53.365Z,8.90
2018-01-15T21:53:20.942Z,8.90
2018-01-15T21:55:49.250Z,8.70
2018-01-15T21:58:16.772Z,8.70
2018-01-15T22:00:44.327Z,8.60
2018-01-15T22:03:11.884Z,8.60
2018-01-15T22:05:39.432Z,8.60
2018-01-15T22:08:06.963Z,8.70
2018-01-15T22:10:34.523Z,8.60
2018-01-15T22:13:02.842Z,8.60
2018-01-15T22:15:30.474Z,8.60
2018-01-15T22:17:58.050Z,8.70
2018-01-15T22:20:25.636Z,8.60
2018-01-15T22:22:53.176Z,8.60
2018-01-15T22:25:20.686Z,8.50
2018-01-15T22:27:48.231Z,8.60
2018-01-15T22:30:15.773Z,8.60
2018-01-15T22:32:43.295Z,8.60
2018-01-15T22:35:10.848Z,8.70
2018-01-15T22:37:38.359Z,8.60
2018-01-15T22:40:05.878Z,8.60
2018-01-15T22:42:33.471Z,8.70
2018-01-15T22:45:01.744Z,8.80
2018-01-15T22:47:29.289Z,8.80
2018-01-15T22:49:56.816Z,8.90
2018-01-15T22:52:24.387Z,8.90
2018-01-15T22:54:51.937Z,9.00
2018-01-15T22:57:19.507Z,9.00
2018-01-15T22:59:47.056Z,9.00
2018-01-15T23:02:14.566Z,9.00
2018-01-15T23:04:42.188Z,9.00
2018-01-15T23:07:09.731Z,9.10
2018-01-15T23:09:37.245Z,9.10
2018-01-15T23:12:04.783Z,9.20
2018-01-15T23:14:32.316Z,9.20
2018-01-15T23:16:59.867Z,9.20
2018-01-15T23:19:27.391Z,9.20
2018-01-15T23:21:54.958Z,9.10
2018-01-15T23:24:22.503Z,9.20
2018-01-15T23:26:50.074Z,9.10
2018-01-15T23:29:17.600Z,9.00
2018-01-15T23:31:45.134Z,9.00
2018-01-15T23:34:12.877Z,9.00
2018-01-15T23:36:40.406Z,9.00
2018-01-15T23:39:07.985Z,9.00
2018-01-15T23:41:35.513Z,9.00
2018-01-15T23:44:03.035Z,9.10
2018-01-15T23:46:30.595Z,9.00
2018-01-15T23:48:58.116Z,9.00
2018-01-15T23:51:25.667Z,8.90
2018-01-15T23:53:53.953Z,8.90
2018-01-15T23:56:21.487Z,8.90
2018-01-15T23:58:50.213Z,8.90
